KDTN/DTN METAR and TAF weather

Enter ICAO airport designator
Station Type Date Time Source
KDTN METAR 2023/02/05 12:53 UTC NOAA

KDTN 051253Z AUTO 18003KT 10SM CLR 07/04 A3026 RMK AO2 SLP245 T00670044


Station Type Date Time Source
KDTN Decoded METAR 2023/02/05 12:53 UTC NOAA

SHREVEPORT DOWNTOWN AIRPORT, LA, United States (KDTN) 32-32N 093-45W 53M
Feb 05, 2023 - 07:53 AM EST / 2023.02.05 1253 UTC
Wind: from the S (180 degrees) at 3 MPH (3 KT):0
Visibility: 10 mile(s):0
Sky conditions: clear
Temperature: 44.1 F (6.7 C)
Dew Point: 39.9 F (4.4 C)
Relative Humidity: 85%
Pressure (altimeter): 30.26 in. Hg (1024 hPa)
ob: KDTN 051253Z AUTO 18003KT 10SM CLR 07/04 A3026 RMK AO2 SLP245 T00670044
cycle: 13

Station Type Date Time Source
KDTN TAF UTC NOAA

Error!

Example: see airport list